createdAt,value
2022-08-05T00:02:39.427Z,7.38
2022-08-05T00:06:01.594Z,6.70
2022-08-05T00:08:35.450Z,7.07
2022-08-05T00:11:34.465Z,7.05
2022-08-05T00:14:16.819Z,8.05
2022-08-05T00:16:54.032Z,7.38
2022-08-05T00:19:33.322Z,6.93
2022-08-05T00:22:06.590Z,7.57
2022-08-05T00:24:43.676Z,7.45
2022-08-05T00:27:19.651Z,8.07
2022-08-05T00:29:52.247Z,8.20
2022-08-05T00:32:31.093Z,7.95
2022-08-05T00:35:07.830Z,8.25
2022-08-05T00:37:52.707Z,7.45
2022-08-05T00:40:30.877Z,8.40
2022-08-05T00:43:12.515Z,7.82
2022-08-05T00:48:27.452Z,7.82
2022-08-05T00:51:09.035Z,8.20
2022-08-05T00:54:02.243Z,8.30
2022-08-05T00:56:36.955Z,8.02
2022-08-05T00:59:13.609Z,8.30
2022-08-05T01:01:48.990Z,8.43
2022-08-05T01:04:26.976Z,8.55
2022-08-05T01:07:08.579Z,9.55
2022-08-05T01:09:46.878Z,8.73
2022-08-05T01:12:29.714Z,9.52
2022-08-05T01:15:35.675Z,9.20
2022-08-05T01:18:09.635Z,9.23
2022-08-05T01:21:13.546Z,9.38
2022-08-05T01:24:32.870Z,8.48
2022-08-05T01:27:55.313Z,9.40
2022-08-05T01:30:36.508Z,8.93
2022-08-05T01:33:19.644Z,9.40
2022-08-05T01:36:16.011Z,9.38
2022-08-05T01:38:50.916Z,8.63
2022-08-05T01:41:38.204Z,8.07
2022-08-05T01:44:34.230Z,7.72
2022-08-05T01:47:21.506Z,7.70
2022-08-05T01:50:00.317Z,7.57
2022-08-05T01:52:40.528Z,7.95
2022-08-05T01:55:21.678Z,8.68
2022-08-05T01:58:10.210Z,8.50
2022-08-05T02:00:55.156Z,7.85
2022-08-05T02:03:47.324Z,7.82
2022-08-05T02:06:33.450Z,7.60
2022-08-05T02:09:16.430Z,8.63
2022-08-05T02:12:32.861Z,7.78
2022-08-05T02:15:33.195Z,7.93
2022-08-05T02:18:44.628Z,7.63
2022-08-05T02:21:46.776Z,7.10
2022-08-05T02:24:55.408Z,7.45
2022-08-05T02:27:57.880Z,6.80
2022-08-05T02:30:54.810Z,6.97
2022-08-05T02:33:45.544Z,6.30
2022-08-05T02:36:31.198Z,7.20
2022-08-05T02:39:12.239Z,6.93
2022-08-05T02:42:01.140Z,6.63
2022-08-05T02:44:40.762Z,5.97
2022-08-05T02:48:11.519Z,5.85
2022-08-05T02:50:45.391Z,6.15
2022-08-05T02:56:18.792Z,5.93
2022-08-05T02:59:07.675Z,6.20
2022-08-05T03:02:16.843Z,6.18
2022-08-05T03:04:58.240Z,6.18
2022-08-05T03:08:00.409Z,7.20
2022-08-05T03:15:06.777Z,6.78
2022-08-05T03:16:23.357Z,6.80
2022-08-05T03:19:12.858Z,6.70
2022-08-05T03:22:05.047Z,7.20
2022-08-05T03:28:25.925Z,6.63
2022-08-05T03:31:04.291Z,6.40
2022-08-05T03:37:22.199Z,6.93
2022-08-05T03:39:47.356Z,7.47
2022-08-05T03:42:52.217Z,8.32
2022-08-05T03:45:23.655Z,7.22
2022-08-05T03:47:58.864Z,7.50
2022-08-05T03:52:38.875Z,7.30
2022-08-05T03:55:06.918Z,8.00
2022-08-05T03:57:41.821Z,7.80
2022-08-05T04:00:16.734Z,7.85
2022-08-05T04:02:58.978Z,8.93
2022-08-05T04:05:35.559Z,8.98
2022-08-05T04:08:14.532Z,8.45
2022-08-05T04:11:04.141Z,8.60
2022-08-05T04:13:53.472Z,8.63
2022-08-05T04:16:32.465Z,8.02
2022-08-05T04:19:10.545Z,9.65
2022-08-05T04:22:09.086Z,8.73
2022-08-05T04:24:36.056Z,8.85
2022-08-05T04:27:08.831Z,8.40
2022-08-05T04:29:43.891Z,9.10
2022-08-05T04:32:30.561Z,8.73
2022-08-05T04:35:04.661Z,8.77
2022-08-05T04:38:02.493Z,8.20
2022-08-05T04:40:35.416Z,8.57
2022-08-05T04:43:11.037Z,8.60
2022-08-05T04:45:54.920Z,8.35
2022-08-05T04:48:28.550Z,8.93
2022-08-05T04:51:11.338Z,9.07
2022-08-05T04:53:44.291Z,9.10
2022-08-05T04:56:35.035Z,9.73
2022-08-05T04:59:21.696Z,9.07
2022-08-05T05:02:08.196Z,9.00
2022-08-05T05:04:51.744Z,9.20
2022-08-05T05:07:29.560Z,9.38
2022-08-05T05:10:06.663Z,9.63
2022-08-05T05:12:39.486Z,9.02
2022-08-05T05:15:12.660Z,9.48
2022-08-05T05:17:56.460Z,9.27
2022-08-05T05:20:30.884Z,8.80
2022-08-05T05:23:08.408Z,9.40
2022-08-05T05:25:52.603Z,8.02
2022-08-05T05:28:25.348Z,8.73
2022-08-05T05:30:58.387Z,8.80
2022-08-05T05:33:31.354Z,8.60
2022-08-05T05:36:24.035Z,8.98
2022-08-05T05:39:03.717Z,8.68
2022-08-05T05:41:40.538Z,9.10
2022-08-05T05:44:35.949Z,8.93
2022-08-05T05:47:21.337Z,8.90
2022-08-05T05:50:01.297Z,8.95
2022-08-05T05:52:40.538Z,9.30
2022-08-05T05:55:15.537Z,9.00
2022-08-05T05:57:52.683Z,9.50
2022-08-05T06:00:31.309Z,9.00
2022-08-05T06:03:40.096Z,9.05
2022-08-05T06:05:59.667Z,9.40
2022-08-05T06:08:35.205Z,10.02
2022-08-05T06:11:13.434Z,10.02
2022-08-05T06:13:50.525Z,9.63
2022-08-05T06:16:36.643Z,9.38
2022-08-05T06:19:12.444Z,10.25
2022-08-05T06:21:49.803Z,8.95
2022-08-05T06:24:25.824Z,10.20
2022-08-05T06:27:01.314Z,10.48
2022-08-05T06:29:48.914Z,10.45
2022-08-05T06:32:29.437Z,10.30
2022-08-05T06:35:06.074Z,10.57
2022-08-05T06:37:58.177Z,10.77
2022-08-05T06:40:33.618Z,9.90
2022-08-05T06:43:06.393Z,10.60
2022-08-05T06:46:03.832Z,11.30
2022-08-05T06:48:52.887Z,10.68
2022-08-05T06:51:31.323Z,10.55
2022-08-05T06:54:07.144Z,9.82
2022-08-05T06:56:42.876Z,11.35
2022-08-05T06:59:27.894Z,10.27
2022-08-05T07:02:00.762Z,10.23
2022-08-05T07:04:34.363Z,10.30
2022-08-05T07:07:11.221Z,9.35
2022-08-05T07:09:47.882Z,10.98
2022-08-05T07:12:49.188Z,10.32
2022-08-05T07:16:00.816Z,9.70
2022-08-05T07:18:34.399Z,9.55
2022-08-05T07:21:07.907Z,10.13
2022-08-05T07:23:49.149Z,9.15
2022-08-05T07:26:25.010Z,9.73
2022-08-05T07:28:59.653Z,8.50
2022-08-05T07:31:54.005Z,9.20
2022-08-05T07:34:28.578Z,9.93
2022-08-05T07:37:01.497Z,9.05
2022-08-05T07:40:26.887Z,9.05
2022-08-05T07:42:33.819Z,8.52
2022-08-05T07:45:09.276Z,8.27
2022-08-05T07:47:42.744Z,7.82
2022-08-05T07:50:16.651Z,8.07
2022-08-05T07:52:49.969Z,7.40
2022-08-05T07:55:44.195Z,7.77
2022-08-05T07:58:57.529Z,7.55
2022-08-05T08:01:15.407Z,7.10
2022-08-05T08:03:48.601Z,7.63
2022-08-05T08:06:28.118Z,6.90
2022-08-05T08:09:06.801Z,6.25
2022-08-05T08:11:58.945Z,5.60
2022-08-05T08:14:40.789Z,5.97
2022-08-05T08:17:39.580Z,5.68
2022-08-05T08:26:57.561Z,4.50
2022-08-05T08:27:07.677Z,4.80
2022-08-05T08:32:53.850Z,5.00
2022-08-05T08:35:41.198Z,4.30
2022-08-05T08:40:07.299Z,4.03
2022-08-05T08:41:52.115Z,3.25
2022-08-05T08:45:17.714Z,3.13
2022-08-05T08:52:17.777Z,2.60
2022-08-05T08:56:02.613Z,3.13
2022-08-05T09:01:35.955Z,2.08
2022-08-05T09:04:21.835Z,1.80
2022-08-05T09:07:29.222Z,2.00
2022-08-05T09:10:17.691Z,2.17
2022-08-05T09:13:12.177Z,2.50
2022-08-05T09:15:49.591Z,2.58
2022-08-05T09:18:51.637Z,2.30
2022-08-05T09:24:44.212Z,2.20
2022-08-05T09:28:04.632Z,2.20
2022-08-05T09:30:31.734Z,1.98
2022-08-05T09:33:17.472Z,1.98
2022-08-05T09:36:11.857Z,1.90
2022-08-05T09:39:45.840Z,1.90
2022-08-05T09:42:28.534Z,1.92
2022-08-05T09:45:17.826Z,2.40
2022-08-05T09:48:01.074Z,1.73
2022-08-05T09:50:44.445Z,2.03
2022-08-05T09:53:26.202Z,1.83
2022-08-05T09:56:13.150Z,1.93
2022-08-05T09:59:06.805Z,1.95
2022-08-05T10:01:45.863Z,2.13
2022-08-05T10:04:18.986Z,1.70
2022-08-05T10:07:19.458Z,2.15
2022-08-05T10:10:04.235Z,1.92
2022-08-05T10:12:52.679Z,2.40
2022-08-05T10:15:36.571Z,2.58
2022-08-05T10:18:19.870Z,2.15
2022-08-05T10:20:56.757Z,1.90
2022-08-05T10:23:56.217Z,1.83
2022-08-05T10:26:32.398Z,1.90
2022-08-05T10:29:07.551Z,1.83
2022-08-05T10:32:53.997Z,1.50
2022-08-05T10:34:34.786Z,1.10
2022-08-05T10:40:03.255Z,1.40
2022-08-05T10:42:39.310Z,0.93
2022-08-05T10:45:39.811Z,1.45
2022-08-05T10:48:56.519Z,1.27
2022-08-05T10:51:57.285Z,1.00
2022-08-05T10:55:05.869Z,1.17
2022-08-05T10:57:41.274Z,0.82
2022-08-05T11:00:23.097Z,0.93
2022-08-05T11:03:24.625Z,0.85
2022-08-05T11:06:16.135Z,0.90
2022-08-05T11:09:24.478Z,0.77
2022-08-05T11:12:06.164Z,0.70
2022-08-05T11:18:07.539Z,0.75
2022-08-05T11:20:43.882Z,0.80
2022-08-05T11:24:04.387Z,0.68
2022-08-05T11:26:34.593Z,0.50
2022-08-05T11:29:13.537Z,0.60
2022-08-05T11:31:54.275Z,0.40
2022-08-05T11:34:50.748Z,0.60
2022-08-05T11:38:29.466Z,0.52
2022-08-05T11:41:35.621Z,0.50
2022-08-05T11:44:11.425Z,0.47
2022-08-05T11:47:09.197Z,0.50
2022-08-05T11:49:43.461Z,0.60
2022-08-05T11:52:29.259Z,0.40
2022-08-05T11:55:07.336Z,0.55
2022-08-05T11:58:09.811Z,0.68
2022-08-05T12:00:41.182Z,0.40
2022-08-05T12:03:23.789Z,0.73
2022-08-05T12:06:06.457Z,0.80
2022-08-05T12:08:53.377Z,0.70
2022-08-05T12:11:40.183Z,0.93
2022-08-05T12:14:14.707Z,0.70
2022-08-05T12:16:49.586Z,0.70
2022-08-05T12:20:26.353Z,0.80
2022-08-05T12:22:26.361Z,0.70
2022-08-05T12:24:59.640Z,1.05
2022-08-05T12:27:35.713Z,0.75
2022-08-05T12:30:29.132Z,1.00
2022-08-05T12:33:07.127Z,0.90
2022-08-05T12:35:58.565Z,1.42
2022-08-05T12:41:13.250Z,0.80
2022-08-05T12:44:11.602Z,0.80
2022-08-05T12:46:56.564Z,0.80
2022-08-05T12:50:04.197Z,0.90
2022-08-05T12:52:42.697Z,0.90
2022-08-05T12:55:23.946Z,0.90
2022-08-05T12:58:51.273Z,0.90
2022-08-05T13:02:03.021Z,0.70
2022-08-05T13:03:48.865Z,0.68
2022-08-05T13:06:26.449Z,0.60
2022-08-05T13:09:08.659Z,0.98
2022-08-05T13:12:01.503Z,0.68
2022-08-05T13:17:41.900Z,0.52
2022-08-05T13:20:21.796Z,0.73
2022-08-05T13:23:00.313Z,0.63
2022-08-05T13:25:51.830Z,0.68
2022-08-05T13:28:29.465Z,0.55
2022-08-05T13:31:13.949Z,0.63
2022-08-05T13:34:23.604Z,0.68
2022-08-05T13:36:46.634Z,0.60
2022-08-05T13:40:14.362Z,0.50
2022-08-05T13:42:15.405Z,0.50
2022-08-05T13:47:35.860Z,0.30
2022-08-05T13:50:19.736Z,0.40
2022-08-05T13:52:52.692Z,0.43
2022-08-05T13:55:41.774Z,0.50
2022-08-05T13:58:30.297Z,0.50
2022-08-05T14:01:12.965Z,0.38
2022-08-05T14:04:05.738Z,0.50
2022-08-05T14:06:39.932Z,0.47
2022-08-05T14:09:30.332Z,0.40
2022-08-05T14:12:17.662Z,0.52
2022-08-05T14:14:56.904Z,0.47
2022-08-05T14:17:29.832Z,0.30
2022-08-05T14:20:07.459Z,0.43
2022-08-05T14:22:40.670Z,0.60
2022-08-05T14:25:28.090Z,0.60
2022-08-05T14:28:01.165Z,0.50
2022-08-05T14:30:33.748Z,0.40
2022-08-05T14:33:09.898Z,0.40
2022-08-05T14:35:51.339Z,0.77
2022-08-05T14:38:34.064Z,0.40
2022-08-05T14:44:01.930Z,0.60
2022-08-05T14:46:34.993Z,0.80
2022-08-05T14:49:08.439Z,0.90
2022-08-05T14:51:42.911Z,0.50
2022-08-05T14:54:27.723Z,0.65
2022-08-05T14:57:05.273Z,0.63
2022-08-05T14:59:42.212Z,0.60
2022-08-05T15:02:16.062Z,0.60
2022-08-05T15:04:49.917Z,0.60
2022-08-05T15:08:08.681Z,0.60
2022-08-05T15:10:15.831Z,1.02
2022-08-05T15:13:00.173Z,0.68
2022-08-05T15:15:53.893Z,0.82
2022-08-05T15:18:27.747Z,0.77
2022-08-05T15:21:07.174Z,0.70
2022-08-05T15:23:40.575Z,0.60
2022-08-05T15:26:13.447Z,0.70
2022-08-05T15:28:54.438Z,0.63
2022-08-05T15:31:34.534Z,0.90
2022-08-05T15:34:32.443Z,0.52
2022-08-05T15:37:06.974Z,0.80
2022-08-05T15:40:59.231Z,0.60
2022-08-05T15:42:54.609Z,0.82
2022-08-05T15:45:37.932Z,0.60
2022-08-05T15:48:13.994Z,0.70
2022-08-05T15:50:50.493Z,0.65
2022-08-05T15:53:26.564Z,0.70
2022-08-05T15:56:14.146Z,0.70
2022-08-05T15:58:56.930Z,0.60
2022-08-05T16:01:39.598Z,0.77
2022-08-05T16:04:53.386Z,0.60
2022-08-05T16:07:39.501Z,0.60
2022-08-05T16:10:55.113Z,0.68
2022-08-05T16:13:53.475Z,0.70
2022-08-05T16:16:29.706Z,0.40
2022-08-05T16:19:09.764Z,0.70
2022-08-05T16:22:00.528Z,0.80
2022-08-05T16:24:40.143Z,0.57
2022-08-05T16:27:16.007Z,0.70
2022-08-05T16:29:50.175Z,0.88
2022-08-05T16:32:28.590Z,0.60
2022-08-05T16:35:03.619Z,0.50
2022-08-05T16:38:02.930Z,0.50
2022-08-05T16:40:30.949Z,0.50
2022-08-05T16:43:06.751Z,0.70
2022-08-05T16:46:06.745Z,0.65
2022-08-05T16:48:35.068Z,0.75
2022-08-05T16:51:09.792Z,0.80
2022-08-05T16:54:05.727Z,0.60
2022-08-05T16:56:36.359Z,0.30
2022-08-05T16:59:10.373Z,0.57
2022-08-05T17:04:28.892Z,0.60
2022-08-05T17:07:03.278Z,0.60
2022-08-05T17:09:56.028Z,0.93
2022-08-05T17:12:51.928Z,0.88
2022-08-05T17:15:23.926Z,0.90
2022-08-05T17:18:02.386Z,1.08
2022-08-05T17:20:35.193Z,0.60
2022-08-05T17:23:09.828Z,0.60
2022-08-05T17:26:02.452Z,0.77
2022-08-05T17:28:36.232Z,0.70
2022-08-05T17:31:24.039Z,0.70
2022-08-05T17:34:01.967Z,0.98
2022-08-05T17:36:40.365Z,0.77
2022-08-05T17:39:24.410Z,0.80
2022-08-05T17:42:28.611Z,0.75
2022-08-05T17:45:09.897Z,0.60
2022-08-05T17:47:56.043Z,0.77
2022-08-05T17:50:30.711Z,0.98
2022-08-05T17:53:05.107Z,0.93
2022-08-05T17:55:40.050Z,0.88
2022-08-05T17:58:14.539Z,0.80
2022-08-05T18:00:50.700Z,0.90
2022-08-05T18:03:56.315Z,1.17
2022-08-05T18:06:17.577Z,0.93
2022-08-05T18:11:36.569Z,0.70
2022-08-05T18:14:13.349Z,0.90
2022-08-05T18:16:51.909Z,0.82
2022-08-05T18:19:37.859Z,0.65
2022-08-05T18:22:17.975Z,0.70
2022-08-05T18:24:51.973Z,0.95
2022-08-05T18:27:24.784Z,1.00
2022-08-05T18:29:57.864Z,0.88
2022-08-05T18:32:33.701Z,1.02
2022-08-05T18:35:07.423Z,1.05
2022-08-05T18:37:44.203Z,0.93
2022-08-05T18:41:50.162Z,0.98
2022-08-05T18:43:16.884Z,1.10
2022-08-05T18:45:52.089Z,1.20
2022-08-05T18:48:33.158Z,1.10
2022-08-05T18:52:04.324Z,1.33
2022-08-05T18:54:20.205Z,1.15
2022-08-05T18:56:53.121Z,1.38
2022-08-05T18:59:44.038Z,1.37
2022-08-05T19:02:27.690Z,0.95
2022-08-05T19:06:05.532Z,1.00
2022-08-05T19:08:15.279Z,0.90
2022-08-05T19:10:49.727Z,0.90
2022-08-05T19:16:00.256Z,1.02
2022-08-05T19:18:47.840Z,1.20
2022-08-05T19:21:22.862Z,1.08
2022-08-05T19:24:05.544Z,1.20
2022-08-05T19:26:43.823Z,1.00
2022-08-05T19:29:35.724Z,1.40
2022-08-05T19:32:13.671Z,1.10
2022-08-05T19:34:55.145Z,0.98
2022-08-05T19:37:47.386Z,1.10
2022-08-05T19:40:24.205Z,1.40
2022-08-05T19:43:04.634Z,1.10
2022-08-05T19:45:38.461Z,0.98
2022-08-05T19:48:33.001Z,1.30
2022-08-05T19:51:06.780Z,1.48
2022-08-05T19:54:04.022Z,0.95
2022-08-05T19:56:36.967Z,1.13
2022-08-05T19:59:21.335Z,1.20
2022-08-05T20:02:07.024Z,1.10
2022-08-05T20:04:42.835Z,1.15
2022-08-05T20:07:46.618Z,1.30
2022-08-05T20:10:14.807Z,1.63
2022-08-05T20:12:50.651Z,1.15
2022-08-05T20:15:52.114Z,1.65
2022-08-05T20:18:32.705Z,1.70
2022-08-05T20:21:08.420Z,2.10
2022-08-05T20:23:51.129Z,1.80
2022-08-05T20:29:06.591Z,2.00
2022-08-05T20:32:03.614Z,2.10
2022-08-05T20:34:36.821Z,2.20
2022-08-05T20:37:24.148Z,2.03
2022-08-05T20:40:09.988Z,1.80
2022-08-05T20:42:43.623Z,2.13
2022-08-05T20:45:16.704Z,2.10
2022-08-05T20:47:53.806Z,1.70
2022-08-05T20:50:26.731Z,1.70
2022-08-05T20:53:00.092Z,1.80
2022-08-05T20:55:56.220Z,1.60
2022-08-05T20:58:31.344Z,1.50
2022-08-05T21:01:04.976Z,1.80
2022-08-05T21:03:47.885Z,1.80
2022-08-05T21:06:28.534Z,1.88
2022-08-05T21:09:04.654Z,1.88
2022-08-05T21:12:10.463Z,2.03
2022-08-05T21:14:35.294Z,2.35
2022-08-05T21:17:08.358Z,2.78
2022-08-05T21:19:47.444Z,3.15
2022-08-05T21:22:23.976Z,3.33
2022-08-05T21:24:58.166Z,2.90
2022-08-05T21:27:38.569Z,2.50
2022-08-05T21:30:17.439Z,2.53
2022-08-05T21:32:50.554Z,2.30
2022-08-05T21:35:30.174Z,2.72
2022-08-05T21:38:16.800Z,2.38
2022-08-05T21:40:50.012Z,2.20
2022-08-05T21:43:24.722Z,2.08
2022-08-05T21:46:00.446Z,2.47
2022-08-05T21:48:35.965Z,2.53
2022-08-05T21:52:16.619Z,2.50
2022-08-05T21:54:03.798Z,2.60
2022-08-05T21:56:44.671Z,2.58
2022-08-05T21:59:28.014Z,2.10
2022-08-05T22:02:10.633Z,2.30
2022-08-05T22:04:43.633Z,2.00
2022-08-05T22:07:16.637Z,2.20
2022-08-05T22:09:49.603Z,2.38
2022-08-05T22:12:26.461Z,2.72
2022-08-05T22:15:00.684Z,2.83
2022-08-05T22:17:33.636Z,2.60
2022-08-05T22:20:14.880Z,1.98
2022-08-05T22:23:17.104Z,2.40
2022-08-05T22:26:14.966Z,2.13
2022-08-05T22:28:47.935Z,2.38
2022-08-05T22:31:22.424Z,2.30
2022-08-05T22:34:01.591Z,2.67
2022-08-05T22:36:35.182Z,2.25
2022-08-05T22:39:12.826Z,2.33
2022-08-05T22:42:09.494Z,3.03
2022-08-05T22:44:55.488Z,2.70
2022-08-05T22:47:30.688Z,2.53
2022-08-05T22:50:20.195Z,2.30
2022-08-05T22:52:56.097Z,2.33
2022-08-05T22:55:56.243Z,2.40
2022-08-05T22:58:28.785Z,2.33
2022-08-05T23:01:02.273Z,2.50
2022-08-05T23:03:58.195Z,2.70
2022-08-05T23:06:27.940Z,2.45
2022-08-05T23:09:24.678Z,2.40
2022-08-05T23:11:54.501Z,2.60
2022-08-05T23:14:31.999Z,3.40
2022-08-05T23:17:24.232Z,2.70
2022-08-05T23:20:17.636Z,2.65
2022-08-05T23:22:50.922Z,2.70
2022-08-05T23:25:52.144Z,3.35
2022-08-05T23:28:28.713Z,3.20
2022-08-05T23:31:15.942Z,3.15
2022-08-05T23:34:05.658Z,2.85
2022-08-05T23:36:44.310Z,3.00
2022-08-05T23:39:31.931Z,3.63
2022-08-05T23:42:14.579Z,3.20
2022-08-05T23:44:54.338Z,4.38
2022-08-05T23:47:27.780Z,3.90
2022-08-05T23:50:09.638Z,5.07
2022-08-05T23:52:49.513Z,5.75
2022-08-05T23:55:24.743Z,5.72
2022-08-05T23:58:05.363Z,5.70
